Time;durP1;ratioP1;P1;durP2;ratioP2;P2;SDS_P1;SDS_P2;PMS_P1;PMS_P2;Temp;Humidity;BMP_temperature;BMP_pressure;BME280_temperature;BME280_humidity;BME280_pressure;Samples;Min_cycle;Max_cycle;Signal;HPM_P1;HPM_P2
2021/04/25 00:01:08;;;;;;;11.23;9.27;;;6.70;99.90;;;;;;5075915;28;20296;-60
2021/04/25 00:03:35;;;;;;;14.40;10.00;;;6.70;99.90;;;;;;5080659;28;20201;-60
2021/04/25 00:06:02;;;;;;;14.60;10.40;;;6.70;99.90;;;;;;5079916;28;20200;-60
2021/04/25 00:08:30;;;;;;;13.40;9.70;;;6.70;99.90;;;;;;5074987;28;20287;-60
2021/04/25 00:10:57;;;;;;;11.27;10.07;;;6.70;99.90;;;;;;5055411;28;20232;-59
2021/04/25 00:13:24;;;;;;;13.10;9.70;;;6.70;99.90;;;;;;5054263;28;20727;-60
2021/04/25 00:15:50;;;;;;;13.83;11.00;;;6.60;99.90;;;;;;5054821;28;20287;-59
2021/04/25 00:18:18;;;;;;;13.43;10.83;;;6.60;99.90;;;;;;5054611;28;20239;-59
2021/04/25 00:20:45;;;;;;;10.37;8.67;;;6.60;99.90;;;;;;5054357;28;20312;-60
2021/04/25 00:23:12;;;;;;;13.73;9.13;;;6.70;99.90;;;;;;5054301;28;20205;-60
2021/04/25 00:25:39;;;;;;;12.37;9.17;;;6.80;99.90;;;;;;5054161;28;20263;-61
2021/04/25 00:28:06;;;;;;;13.20;8.37;;;7.00;99.90;;;;;;5054247;28;20288;-61
2021/04/25 00:30:33;;;;;;;11.57;8.23;;;6.90;99.90;;;;;;5054159;28;20204;-60
2021/04/25 00:33:01;;;;;;;11.87;8.33;;;6.90;99.90;;;;;;5054264;28;20270;-59
2021/04/25 00:35:29;;;;;;;9.93;7.60;;;6.80;99.90;;;;;;5054198;28;20207;-59
2021/04/25 00:37:56;;;;;;;10.27;7.67;;;6.90;99.90;;;;;;5054380;28;20240;-60
2021/04/25 00:40:23;;;;;;;10.03;7.33;;;7.00;99.90;;;;;;5054206;28;20228;-60
2021/04/25 00:42:50;;;;;;;12.53;7.93;;;6.70;99.90;;;;;;5054383;28;20292;-60
2021/04/25 00:45:19;;;;;;;11.70;7.93;;;6.50;99.90;;;;;;5054130;28;20235;-59
2021/04/25 00:47:48;;;;;;;12.20;7.77;;;6.40;99.90;;;;;;5053826;28;20286;-60
2021/04/25 00:50:16;;;;;;;10.37;7.77;;;6.30;99.90;;;;;;5053988;28;20201;-59
2021/04/25 00:52:46;;;;;;;10.97;8.10;;;6.30;99.90;;;;;;5054106;28;20211;-58
2021/04/25 00:55:15;;;;;;;11.67;9.00;;;6.30;99.90;;;;;;5054087;28;20210;-60
2021/04/25 00:57:42;;;;;;;10.93;7.97;;;6.20;99.90;;;;;;5054031;28;20301;-59
2021/04/25 01:00:12;;;;;;;12.00;8.83;;;6.10;99.90;;;;;;5053338;28;20231;-59
2021/04/25 01:02:39;;;;;;;13.10;9.03;;;6.00;99.90;;;;;;5053777;28;20285;-60
2021/04/25 01:05:08;;;;;;;10.67;8.47;;;6.20;99.90;;;;;;5052793;28;20212;-59
2021/04/25 01:07:35;;;;;;;11.97;8.60;;;6.20;99.90;;;;;;5053935;28;20201;-60
2021/04/25 01:10:05;;;;;;;12.03;8.60;;;6.20;99.90;;;;;;5065252;28;20292;-60
2021/04/25 01:12:31;;;;;;;13.57;7.73;;;6.30;99.90;;;;;;5073606;28;20200;-59
2021/04/25 01:14:58;;;;;;;15.00;9.00;;;6.20;99.90;;;;;;5073010;28;20323;-59
2021/04/25 01:17:25;;;;;;;11.90;8.57;;;6.20;99.90;;;;;;5073517;28;20246;-60
2021/04/25 01:19:52;;;;;;;11.33;8.10;;;6.10;99.90;;;;;;5073078;28;20213;-59
2021/04/25 01:22:20;;;;;;;12.30;8.90;;;6.20;99.90;;;;;;5073166;28;20224;-60
2021/04/25 01:24:47;;;;;;;13.30;8.90;;;6.40;99.90;;;;;;5072891;28;20208;-60
2021/04/25 01:27:14;;;;;;;12.53;9.17;;;6.40;99.90;;;;;;5073378;28;20232;-59
2021/04/25 01:29:42;;;;;;;13.30;9.97;;;6.30;99.90;;;;;;5072243;28;20753;-59
2021/04/25 01:32:09;;;;;;;13.67;10.27;;;6.30;99.90;;;;;;5072917;28;20767;-60
2021/04/25 01:34:36;;;;;;;12.80;8.83;;;6.20;99.90;;;;;;5073362;28;20207;-59
2021/04/25 01:37:03;;;;;;;12.10;9.87;;;6.20;99.90;;;;;;5072946;28;20651;-59
2021/04/25 01:39:31;;;;;;;11.67;8.70;;;6.30;99.90;;;;;;5072990;28;20210;-59
2021/04/25 01:41:58;;;;;;;16.17;9.57;;;6.30;99.90;;;;;;5073172;28;20627;-59
2021/04/25 01:44:25;;;;;;;12.33;9.43;;;6.30;99.90;;;;;;5073174;28;20208;-59
2021/04/25 01:46:52;;;;;;;14.57;9.37;;;6.20;99.90;;;;;;5073075;28;20246;-59
2021/04/25 01:49:19;;;;;;;11.87;9.73;;;6.20;99.90;;;;;;5072829;28;20211;-60
2021/04/25 01:51:46;;;;;;;13.60;9.77;;;6.30;99.90;;;;;;5072701;28;20295;-59
2021/04/25 01:54:13;;;;;;;12.77;9.17;;;6.40;99.90;;;;;;5072793;28;20210;-60
2021/04/25 01:56:41;;;;;;;12.67;9.17;;;6.40;99.90;;;;;;5072893;28;20286;-59
2021/04/25 01:59:08;;;;;;;12.87;10.10;;;6.30;99.90;;;;;;5072998;28;20210;-60
2021/04/25 02:01:35;;;;;;;12.87;9.90;;;6.30;99.90;;;;;;5072735;28;20224;-60
2021/04/25 02:04:02;;;;;;;14.57;10.00;;;6.30;99.90;;;;;;5072785;28;20199;-60
2021/04/25 02:06:29;;;;;;;10.03;8.63;;;6.40;99.90;;;;;;5072636;28;20197;-59
2021/04/25 02:08:56;;;;;;;15.93;9.90;;;6.30;99.90;;;;;;5069913;28;20299;-59
2021/04/25 02:11:23;;;;;;;11.23;9.67;;;6.20;99.90;;;;;;5052462;28;20294;-59
2021/04/25 02:13:51;;;;;;;12.77;9.87;;;6.20;99.90;;;;;;5052533;28;20331;-61
2021/04/25 02:16:18;;;;;;;11.97;9.40;;;6.10;99.90;;;;;;5052344;28;20205;-58
2021/04/25 02:18:46;;;;;;;13.50;9.43;;;6.20;99.90;;;;;;5052605;28;20287;-60
2021/04/25 02:21:12;;;;;;;11.57;9.53;;;6.40;99.90;;;;;;5052298;28;20319;-60
2021/04/25 02:23:39;;;;;;;13.00;10.67;;;6.30;99.90;;;;;;5052694;28;20208;-60
2021/04/25 02:26:06;;;;;;;12.83;10.07;;;6.30;99.90;;;;;;5052468;28;20356;-60
2021/04/25 02:28:33;;;;;;;14.13;10.07;;;6.30;99.90;;;;;;5052603;28;20255;-59
2021/04/25 02:31:01;;;;;;;15.13;10.40;;;6.30;99.90;;;;;;5052397;28;20307;-59
2021/04/25 02:33:27;;;;;;;13.77;11.93;;;6.20;99.90;;;;;;5052108;28;20212;-59
2021/04/25 02:35:54;;;;;;;14.33;10.87;;;6.20;99.90;;;;;;5052347;28;20251;-59
2021/04/25 02:38:21;;;;;;;13.97;10.33;;;6.10;99.90;;;;;;5052257;28;20675;-59
2021/04/25 02:40:48;;;;;;;14.97;12.63;;;6.00;99.90;;;;;;5052158;28;20322;-60
2021/04/25 02:43:15;;;;;;;15.13;13.17;;;5.90;99.90;;;;;;5052486;28;20289;-59
2021/04/25 02:45:42;;;;;;;16.50;11.53;;;5.90;99.90;;;;;;5052173;28;20579;-59
2021/04/25 02:48:10;;;;;;;13.60;10.50;;;5.90;99.90;;;;;;5052332;28;20289;-60
2021/04/25 02:50:40;;;;;;;14.70;10.47;;;5.80;99.90;;;;;;5052359;28;20211;-60
2021/04/25 02:53:08;;;;;;;12.77;9.90;;;5.90;99.90;;;;;;5052102;28;20669;-60
2021/04/25 02:55:35;;;;;;;12.33;9.37;;;5.80;99.90;;;;;;5052094;28;20295;-59
2021/04/25 02:58:03;;;;;;;12.67;9.73;;;5.90;99.90;;;;;;5051998;28;20201;-60
2021/04/25 03:00:30;;;;;;;14.00;9.90;;;5.90;99.90;;;;;;5051981;28;20309;-61
2021/04/25 03:02:58;;;;;;;10.93;9.13;;;6.00;99.90;;;;;;5052159;28;20204;-60
2021/04/25 03:05:26;;;;;;;13.03;9.53;;;5.90;99.90;;;;;;5051431;28;20228;-59
2021/04/25 03:07:53;;;;;;;12.77;10.17;;;5.80;99.90;;;;;;5052159;28;20580;-59
2021/04/25 03:10:21;;;;;;;11.17;8.80;;;5.90;99.90;;;;;;5066402;28;20202;-60
2021/04/25 03:12:48;;;;;;;12.60;9.07;;;5.90;99.90;;;;;;5072255;28;20244;-59
2021/04/25 03:15:17;;;;;;;12.37;8.87;;;5.80;99.90;;;;;;5071827;28;20231;-61
2021/04/25 03:17:44;;;;;;;14.30;9.10;;;5.80;99.90;;;;;;5071973;28;20293;-59
2021/04/25 03:20:13;;;;;;;12.67;8.40;;;5.80;99.90;;;;;;5071651;28;20763;-60
2021/04/25 03:22:41;;;;;;;11.67;8.23;;;5.80;99.90;;;;;;5072078;28;20250;-59
2021/04/25 03:25:10;;;;;;;10.63;7.93;;;5.80;99.90;;;;;;5072156;28;20383;-59
2021/04/25 03:27:37;;;;;;;11.27;7.53;;;5.70;99.90;;;;;;5072071;28;20295;-60
2021/04/25 03:30:06;;;;;;;10.00;7.73;;;5.70;99.90;;;;;;5074797;28;20203;-59
2021/04/25 03:32:33;;;;;;;11.97;7.87;;;5.60;99.90;;;;;;5075530;28;20286;-60
2021/04/25 03:35:00;;;;;;;11.03;7.70;;;5.70;99.90;;;;;;5075458;28;20289;-61
2021/04/25 03:37:27;;;;;;;13.70;7.60;;;5.70;99.90;;;;;;5075458;28;20309;-59
2021/04/25 03:39:55;;;;;;;12.53;8.60;;;5.60;99.90;;;;;;5075481;28;20387;-59
2021/04/25 03:42:22;;;;;;;11.30;8.23;;;5.50;99.90;;;;;;5075196;28;20411;-59
2021/04/25 03:44:49;;;;;;;13.13;8.07;;;5.40;99.90;;;;;;5075314;28;20754;-59
2021/04/25 03:47:16;;;;;;;10.83;7.80;;;5.40;99.90;;;;;;5075197;28;20290;-60
2021/04/25 03:49:43;;;;;;;12.77;7.53;;;5.30;99.90;;;;;;5075457;28;20259;-60
2021/04/25 03:52:10;;;;;;;11.00;7.50;;;5.30;99.90;;;;;;5075042;28;20206;-60
2021/04/25 03:54:37;;;;;;;9.87;7.30;;;5.40;99.90;;;;;;5075454;28;20237;-59
2021/04/25 03:57:05;;;;;;;8.73;6.93;;;5.30;99.90;;;;;;5075280;28;20211;-60
2021/04/25 03:59:32;;;;;;;11.57;7.90;;;5.30;99.90;;;;;;5075234;28;20202;-60
2021/04/25 04:01:59;;;;;;;8.00;7.07;;;5.20;99.90;;;;;;5074921;28;20598;-60
2021/04/25 04:04:27;;;;;;;10.50;7.67;;;5.20;99.90;;;;;;5075041;28;20227;-60
2021/04/25 04:06:54;;;;;;;10.37;7.40;;;5.10;99.90;;;;;;5075079;28;20269;-60
2021/04/25 04:09:21;;;;;;;9.27;7.07;;;5.10;99.90;;;;;;5068790;28;20200;-59
2021/04/25 04:11:48;;;;;;;9.90;7.83;;;5.20;99.90;;;;;;5054883;28;20306;-59
2021/04/25 04:14:15;;;;;;;10.10;7.50;;;5.30;99.90;;;;;;5054465;28;20734;-60
2021/04/25 04:16:42;;;;;;;9.73;7.07;;;5.40;99.90;;;;;;5054764;28;20207;-59
2021/04/25 04:19:09;;;;;;;10.33;7.57;;;5.40;99.90;;;;;;5054423;28;20285;-60
2021/04/25 04:21:36;;;;;;;9.73;7.43;;;5.50;99.90;;;;;;5054890;28;20319;-59
2021/04/25 04:24:03;;;;;;;10.97;7.70;;;5.50;99.90;;;;;;5057213;28;20678;-61
2021/04/25 04:26:30;;;;;;;10.87;7.43;;;5.60;99.90;;;;;;5058704;28;20588;-60
2021/04/25 04:28:57;;;;;;;9.73;7.67;;;5.50;99.90;;;;;;5055585;28;20204;-59
2021/04/25 04:31:25;;;;;;;10.43;7.77;;;5.50;99.90;;;;;;5054704;28;20296;-60
2021/04/25 04:33:52;;;;;;;11.83;7.17;;;5.50;99.90;;;;;;5054398;28;20222;-59
2021/04/25 04:36:20;;;;;;;10.37;7.40;;;5.50;99.90;;;;;;5054278;28;20211;-58
2021/04/25 04:38:46;;;;;;;9.90;7.43;;;5.50;99.90;;;;;;5054003;28;20746;-60
2021/04/25 04:41:13;;;;;;;10.63;6.97;;;5.50;99.90;;;;;;5054164;28;20225;-60
2021/04/25 04:43:40;;;;;;;9.23;6.90;;;5.50;99.90;;;;;;5054364;28;20581;-59
2021/04/25 04:46:07;;;;;;;10.97;6.37;;;5.60;99.90;;;;;;5054150;28;20304;-60
2021/04/25 04:48:35;;;;;;;9.57;6.57;;;5.70;99.90;;;;;;5054160;28;20204;-58
2021/04/25 04:51:02;;;;;;;8.03;6.23;;;5.70;99.90;;;;;;5054119;28;20214;-59
2021/04/25 04:53:29;;;;;;;9.70;6.47;;;5.70;99.90;;;;;;5053970;28;20260;-60
2021/04/25 04:55:56;;;;;;;9.23;6.03;;;5.70;99.90;;;;;;5054087;28;20207;-60
2021/04/25 04:58:23;;;;;;;8.83;6.10;;;5.80;99.90;;;;;;5053875;28;20289;-59
2021/04/25 05:00:50;;;;;;;8.53;5.83;;;5.90;99.90;;;;;;5053901;28;20260;-60
2021/04/25 05:03:21;;;;;;;7.30;5.40;;;6.00;99.90;;;;;;5053758;28;20220;-60
2021/04/25 05:05:49;;;;;;;7.47;5.23;;;5.90;99.90;;;;;;5053771;28;20312;-60
2021/04/25 05:08:16;;;;;;;7.13;5.03;;;5.80;99.90;;;;;;5053816;28;20291;-59
2021/04/25 05:10:43;;;;;;;6.57;5.40;;;5.90;99.90;;;;;;5070986;28;20766;-59
2021/04/25 05:13:10;;;;;;;7.87;4.97;;;5.80;99.90;;;;;;5073781;28;20205;-59
2021/04/25 05:15:38;;;;;;;6.83;4.87;;;5.90;99.90;;;;;;5073675;28;20199;-60
2021/04/25 05:18:05;;;;;;;6.87;4.80;;;6.00;99.90;;;;;;5072825;28;20775;-59
2021/04/25 05:20:32;;;;;;;5.80;4.63;;;5.90;99.90;;;;;;5068876;28;20234;-59
2021/04/25 05:23:00;;;;;;;5.40;3.90;;;5.90;99.90;;;;;;5073240;28;20206;-59
2021/04/25 05:25:28;;;;;;;4.97;4.00;;;5.70;99.90;;;;;;5073482;28;20290;-60
2021/04/25 05:27:55;;;;;;;4.77;3.60;;;5.60;99.90;;;;;;5073305;28;20208;-61
2021/04/25 05:30:22;;;;;;;5.43;3.77;;;5.50;99.90;;;;;;5073263;28;20198;-60
2021/04/25 05:32:49;;;;;;;5.27;4.20;;;5.60;99.90;;;;;;5073177;28;20201;-60
2021/04/25 05:35:16;;;;;;;5.47;3.57;;;5.60;99.90;;;;;;5073299;28;20212;-60
2021/04/25 05:37:44;;;;;;;7.20;4.27;;;5.50;99.90;;;;;;5072925;28;20290;-59
2021/04/25 05:40:13;;;;;;;6.53;3.93;;;5.60;99.90;;;;;;5072559;28;20213;-60
2021/04/25 05:42:41;;;;;;;5.37;3.67;;;5.70;99.90;;;;;;5072480;28;20670;-59
2021/04/25 05:45:19;;;;;;;5.67;4.00;;;5.80;99.90;;;;;;5072531;28;20680;-59
2021/04/25 05:47:51;;;;;;;3.63;3.33;;;5.80;99.90;;;;;;5072931;28;20214;-60
2021/04/25 05:50:19;;;;;;;8.10;4.03;;;5.90;99.90;;;;;;5073010;28;20190;-60
2021/04/25 05:52:46;;;;;;;5.97;3.77;;;6.00;99.90;;;;;;5072125;28;20210;-59
2021/04/25 05:55:14;;;;;;;5.87;4.10;;;6.00;99.90;;;;;;5072671;28;20245;-58
2021/04/25 05:57:42;;;;;;;6.73;3.57;;;6.10;99.90;;;;;;5072548;28;20650;-59
2021/04/25 06:00:12;;;;;;;3.97;3.53;;;6.10;99.90;;;;;;5072943;28;20209;-59
2021/04/25 06:02:38;;;;;;;6.60;4.03;;;6.30;99.90;;;;;;5072770;28;20301;-59
2021/04/25 06:05:06;;;;;;;4.40;3.43;;;6.30;99.90;;;;;;5073051;28;20196;-59
2021/04/25 06:07:33;;;;;;;3.83;3.23;;;6.40;99.90;;;;;;5072447;28;20294;-60
2021/04/25 06:10:00;;;;;;;5.00;3.70;;;6.40;99.90;;;;;;5061193;28;20295;-59
2021/04/25 06:12:28;;;;;;;5.13;3.87;;;6.50;99.90;;;;;;5052680;28;20586;-61
2021/04/25 06:14:55;;;;;;;6.43;3.70;;;6.50;99.90;;;;;;5053774;28;20257;-60
2021/04/25 06:17:22;;;;;;;6.30;3.60;;;6.60;99.90;;;;;;5052297;28;20294;-59
2021/04/25 06:19:49;;;;;;;7.80;4.10;;;6.50;99.90;;;;;;5052480;28;20223;-60
2021/04/25 06:22:15;;;;;;;6.33;3.63;;;6.70;99.90;;;;;;5052256;28;20782;-60
2021/04/25 06:24:42;;;;;;;8.07;3.90;;;6.90;99.90;;;;;;5052349;28;20215;-59
2021/04/25 06:27:09;;;;;;;5.50;3.27;;;7.10;99.90;;;;;;5052050;28;20209;-60
2021/04/25 06:29:37;;;;;;;8.27;3.47;;;7.10;99.90;;;;;;5052125;28;20743;-60
2021/04/25 06:32:05;;;;;;;6.40;3.77;;;6.90;99.90;;;;;;5052199;28;20258;-60
2021/04/25 06:34:32;;;;;;;5.37;3.73;;;7.00;99.90;;;;;;5052401;28;20200;-61
2021/04/25 06:36:59;;;;;;;4.73;3.13;;;6.90;99.90;;;;;;5052290;28;20204;-59
2021/04/25 06:39:26;;;;;;;5.67;3.43;;;6.60;99.90;;;;;;5052281;28;20304;-59
2021/04/25 06:41:53;;;;;;;5.63;3.37;;;6.60;99.90;;;;;;5051605;28;20307;-59
2021/04/25 06:44:19;;;;;;;6.47;3.60;;;6.70;99.90;;;;;;5071240;28;20214;-60
2021/04/25 06:46:47;;;;;;;7.67;4.17;;;6.70;99.90;;;;;;5072335;28;20288;-59
2021/04/25 06:49:14;;;;;;;4.83;3.20;;;6.70;99.90;;;;;;5072050;28;20226;-60
2021/04/25 06:51:41;;;;;;;7.00;3.30;;;6.70;99.90;;;;;;5072005;28;20318;-59
2021/04/25 06:54:08;;;;;;;8.67;4.10;;;6.80;99.90;;;;;;5072280;28;20204;-60
2021/04/25 06:56:37;;;;;;;10.70;4.57;;;6.90;99.90;;;;;;5072253;28;20231;-59
2021/04/25 06:59:04;;;;;;;5.90;4.67;;;6.80;99.90;;;;;;5071770;28;20231;-59
2021/04/25 07:01:31;;;;;;;6.63;5.60;;;6.80;99.90;;;;;;5071790;28;20270;-59
2021/04/25 07:03:59;;;;;;;9.70;5.40;;;6.80;99.90;;;;;;5073131;28;20230;-60
2021/04/25 07:06:27;;;;;;;8.33;5.83;;;6.80;99.90;;;;;;5075999;28;20561;-59
2021/04/25 07:08:54;;;;;;;7.83;5.23;;;7.00;99.90;;;;;;5075527;28;20569;-59
2021/04/25 07:11:21;;;;;;;6.80;4.93;;;7.20;99.90;;;;;;5075630;28;20211;-59
2021/04/25 07:13:48;;;;;;;7.97;4.90;;;7.40;99.90;;;;;;5075371;28;20263;-59
2021/04/25 07:16:15;;;;;;;6.67;4.57;;;7.60;99.90;;;;;;5075637;28;20281;-59
2021/04/25 07:18:42;;;;;;;7.80;4.57;;;7.70;99.90;;;;;;5075719;28;20215;-59
2021/04/25 07:21:10;;;;;;;6.50;4.23;;;7.60;99.90;;;;;;5075298;28;20717;-59
2021/04/25 07:23:38;;;;;;;8.07;4.20;;;7.50;99.90;;;;;;5055461;28;20588;-59
2021/04/25 07:26:17;;;;;;;6.27;4.27;;;7.70;99.90;;;;;;5055550;28;20276;-59
2021/04/25 07:28:44;;;;;;;8.47;3.97;;;8.00;99.90;;;;;;5055076;28;20239;-59
2021/04/25 07:31:12;;;;;;;7.33;4.33;;;8.30;99.90;;;;;;5055457;28;20646;-59
2021/04/25 07:33:40;;;;;;;8.40;4.60;;;8.40;99.90;;;;;;5071192;28;20583;-60
2021/04/25 07:36:09;;;;;;;6.57;3.80;;;8.60;99.90;;;;;;5075309;28;20291;-59
2021/04/25 07:38:38;;;;;;;7.47;3.80;;;8.90;99.90;;;;;;5075492;28;20197;-60
2021/04/25 07:41:07;;;;;;;6.53;3.87;;;9.00;99.90;;;;;;5075362;28;20318;-60
2021/04/25 07:43:34;;;;;;;6.00;3.60;;;9.00;99.90;;;;;;5075116;28;20211;-61
2021/04/25 07:46:01;;;;;;;8.27;4.30;;;8.90;99.90;;;;;;5055797;28;20307;-61
2021/04/25 07:48:28;;;;;;;6.63;4.17;;;9.20;99.90;;;;;;5054790;28;20207;-59
2021/04/25 07:50:55;;;;;;;6.33;4.20;;;9.00;99.90;;;;;;5055135;28;20193;-59
2021/04/25 07:53:22;;;;;;;6.70;4.07;;;9.40;99.90;;;;;;5054773;28;20275;-60
2021/04/25 07:55:49;;;;;;;6.17;4.20;;;9.50;99.90;;;;;;5055340;28;20208;-61
2021/04/25 07:58:16;;;;;;;8.23;4.40;;;9.70;99.90;;;;;;5054851;28;20285;-63
2021/04/25 08:00:43;;;;;;;6.10;4.27;;;9.60;99.90;;;;;;5054777;28;20660;-61
2021/04/25 08:03:10;;;;;;;8.83;4.47;;;9.60;99.90;;;;;;5054500;28;20637;-62
2021/04/25 08:05:37;;;;;;;8.03;4.33;;;9.50;99.90;;;;;;5054665;28;20201;-61
2021/04/25 08:08:05;;;;;;;7.17;4.80;;;9.50;99.90;;;;;;5054057;28;20295;-59
2021/04/25 08:10:32;;;;;;;6.60;4.43;;;9.30;99.90;;;;;;5070264;28;20288;-58
2021/04/25 08:12:59;;;;;;;7.80;4.80;;;9.60;99.90;;;;;;5074651;28;20224;-58
2021/04/25 08:15:26;;;;;;;9.07;4.93;;;9.80;99.90;;;;;;5073672;28;20315;-60
2021/04/25 08:17:56;;;;;;;8.17;4.63;;;10.20;99.90;;;;;;5074194;28;20926;-60
2021/04/25 08:20:23;;;;;;;6.17;4.30;;;10.30;99.90;;;;;;5074410;28;20196;-59
2021/04/25 08:22:50;;;;;;;8.43;4.90;;;10.30;99.90;;;;;;5074222;28;20196;-60
2021/04/25 08:25:17;;;;;;;6.90;4.90;;;10.10;99.90;;;;;;5073998;28;20291;-60
2021/04/25 08:27:44;;;;;;;7.53;5.07;;;10.00;99.90;;;;;;5074336;28;20240;-59
2021/04/25 08:30:13;;;;;;;6.07;4.30;;;9.80;99.90;;;;;;5073526;28;20318;-60
2021/04/25 08:32:40;;;;;;;6.40;4.07;;;9.70;99.90;;;;;;5073766;28;20279;-63
2021/04/25 08:35:08;;;;;;;7.20;4.47;;;9.30;99.90;;;;;;5073916;28;20200;-60
2021/04/25 08:37:35;;;;;;;9.53;4.53;;;9.40;99.90;;;;;;5073472;28;20205;-60
2021/04/25 08:40:02;;;;;;;7.53;4.83;;;9.80;99.90;;;;;;5074140;28;20196;-61
2021/04/25 08:42:29;;;;;;;7.80;4.77;;;9.90;99.90;;;;;;5073807;28;20918;-62
2021/04/25 08:44:56;;;;;;;8.80;4.73;;;9.90;99.90;;;;;;5073959;28;20667;-60
2021/04/25 08:47:27;;;;;;;6.67;4.67;;;10.00;99.90;;;;;;5073569;28;20765;-61
2021/04/25 08:49:58;;;;;;;5.17;4.17;;;10.10;99.90;;;;;;5073644;28;20224;-61
2021/04/25 08:52:26;;;;;;;6.97;4.30;;;10.20;99.90;;;;;;5073436;28;20605;-60
2021/04/25 08:54:53;;;;;;;8.80;5.33;;;10.30;99.90;;;;;;5073799;28;20208;-60
2021/04/25 08:57:20;;;;;;;7.27;5.40;;;10.20;99.90;;;;;;5074750;28;20236;-59
2021/04/25 08:59:47;;;;;;;9.93;4.90;;;10.40;99.90;;;;;;5076419;28;20668;-61
2021/04/25 09:02:13;;;;;;;8.33;4.80;;;10.50;99.90;;;;;;5075134;28;20299;-60
2021/04/25 09:04:41;;;;;;;9.90;5.00;;;10.60;99.90;;;;;;5074120;28;20197;-60
2021/04/25 09:07:16;;;;;;;6.53;4.17;;;10.70;99.90;;;;;;5073571;28;20235;-61
2021/04/25 09:09:48;;;;;;;7.23;4.60;;;10.30;99.90;;;;;;5073289;28;20203;-61
2021/04/25 09:12:32;;;;;;;6.50;4.50;;;10.20;99.90;;;;;;5073826;28;20227;-59
2021/04/25 09:14:59;;;;;;;8.57;5.27;;;10.30;99.90;;;;;;5073165;28;20320;-60
2021/04/25 09:17:27;;;;;;;6.97;4.60;;;10.40;99.90;;;;;;5073011;28;20665;-62
2021/04/25 09:19:56;;;;;;;8.03;4.60;;;10.20;99.90;;;;;;5073291;28;20210;-61
2021/04/25 09:22:41;;;;;;;7.67;5.07;;;10.00;99.90;;;;;;5073092;28;20204;-61
2021/04/25 09:25:09;;;;;;;9.27;5.27;;;9.70;99.90;;;;;;5072963;28;20195;-61
2021/04/25 09:27:37;;;;;;;9.53;4.60;;;9.70;99.90;;;;;;5071927;28;20295;-61
2021/04/25 09:30:05;;;;;;;9.03;4.70;;;9.80;99.90;;;;;;5073017;28;20219;-62
2021/04/25 09:32:33;;;;;;;8.10;4.77;;;9.80;99.90;;;;;;5072903;28;20197;-60
2021/04/25 09:35:11;;;;;;;7.83;4.97;;;10.10;99.90;;;;;;5072759;28;20215;-58
2021/04/25 09:37:41;;;;;;;7.73;4.80;;;10.30;99.90;;;;;;5072599;28;20267;-60
2021/04/25 09:40:10;;;;;;;7.83;5.13;;;10.20;99.90;;;;;;5072821;28;20210;-64
2021/04/25 09:42:58;;;;;;;7.87;4.43;;;10.10;99.90;;;;;;5072423;28;20319;-60
2021/04/25 09:45:27;;;;;;;7.17;4.70;;;10.50;99.90;;;;;;5072903;28;20284;-64
2021/04/25 09:47:55;;;;;;;9.00;4.77;;;10.70;99.90;;;;;;5072719;28;20200;-61
2021/04/25 09:50:24;;;;;;;8.10;4.63;;;10.60;99.90;;;;;;5072701;28;20224;-59
2021/04/25 09:52:52;;;;;;;8.20;4.70;;;10.40;99.90;;;;;;5072404;28;20707;-60
2021/04/25 09:55:25;;;;;;;8.90;5.40;;;10.50;99.90;;;;;;5072708;28;20206;-59
2021/04/25 09:57:54;;;;;;;6.83;4.67;;;10.70;99.90;;;;;;5072104;28;20703;-59
2021/04/25 10:00:22;;;;;;;5.93;4.47;;;10.60;99.90;;;;;;5072438;28;20262;-60
2021/04/25 10:02:57;;;;;;;6.97;4.40;;;10.50;99.90;;;;;;5072526;28;20216;-60
2021/04/25 10:05:29;;;;;;;7.77;4.60;;;10.40;99.90;;;;;;5072591;28;20231;-58
2021/04/25 10:07:57;;;;;;;6.23;4.27;;;10.50;99.90;;;;;;5072316;28;20322;-54
2021/04/25 10:10:24;;;;;;;7.43;4.37;;;10.60;99.90;;;;;;5072353;28;20196;-58
2021/04/25 10:12:51;;;;;;;10.47;4.83;;;10.70;99.90;;;;;;5072649;28;20207;-57
2021/04/25 10:15:20;;;;;;;8.43;4.33;;;11.10;99.90;;;;;;5072110;28;20224;-61
2021/04/25 10:17:49;;;;;;;6.20;4.37;;;11.10;99.90;;;;;;5072345;28;20200;-59
2021/04/25 10:20:18;;;;;;;8.13;4.63;;;11.00;99.90;;;;;;5072229;28;20887;-60
2021/04/25 10:22:47;;;;;;;9.00;4.70;;;11.20;99.90;;;;;;5072098;28;20304;-60
2021/04/25 10:25:16;;;;;;;8.17;4.23;;;11.20;99.90;;;;;;5072195;28;20335;-60
2021/04/25 10:27:54;;;;;;;5.50;3.90;;;10.80;99.90;;;;;;5072035;28;20711;-60
2021/04/25 10:30:22;;;;;;;7.13;4.27;;;10.80;99.90;;;;;;5072491;28;20196;-59
2021/04/25 10:32:57;;;;;;;5.80;3.90;;;10.70;99.90;;;;;;5071971;28;20197;-61
2021/04/25 10:35:29;;;;;;;7.87;4.40;;;10.90;99.90;;;;;;5072201;28;20212;-59
2021/04/25 10:37:57;;;;;;;7.27;3.97;;;11.20;99.90;;;;;;5073164;28;20790;-59
2021/04/25 10:40:29;;;;;;;6.20;3.90;;;11.30;99.90;;;;;;5076509;28;20231;-60
2021/04/25 10:42:59;;;;;;;5.57;3.80;;;11.10;99.90;;;;;;5076067;28;20752;-60
2021/04/25 10:45:30;;;;;;;5.53;3.43;;;11.10;99.90;;;;;;5076351;28;20197;-61
2021/04/25 10:48:29;;;;;;;5.97;3.33;;;11.00;99.90;;;;;;5075904;28;20189;-60
2021/04/25 10:51:17;;;;;;;6.23;3.27;;;11.20;99.90;;;;;;5075498;28;20532;-60
2021/04/25 10:53:47;;;;;;;7.73;3.57;;;11.20;99.90;;;;;;5076083;28;20319;-60
2021/04/25 10:56:26;;;;;;;4.87;3.63;;;11.30;99.90;;;;;;5076104;28;20230;-61
2021/04/25 10:59:27;;;;;;;7.53;3.33;;;11.40;99.90;;;;;;5076062;28;20188;-59
2021/04/25 11:01:55;;;;;;;5.70;3.20;;;11.70;99.90;;;;;;5071439;28;20224;-60
2021/04/25 11:04:58;;;;;;;7.47;3.53;;;11.80;99.90;;;;;;5075888;28;20203;-59
2021/04/25 11:07:42;;;;;;;4.43;3.30;;;11.80;99.90;;;;;;5075669;28;20184;-60
2021/04/25 11:10:11;;;;;;;6.57;3.13;;;11.80;99.90;;;;;;5075835;28;20283;-60
2021/04/25 11:12:44;;;;;;;5.93;3.47;;;11.60;99.90;;;;;;5075848;28;20252;-59
2021/04/25 11:15:31;;;;;;;6.47;3.67;;;11.50;99.90;;;;;;5075392;28;20233;-59
2021/04/25 11:17:58;;;;;;;6.87;3.63;;;11.50;99.90;;;;;;5075415;28;20181;-60
2021/04/25 11:20:32;;;;;;;7.10;2.93;;;11.70;99.90;;;;;;5075653;28;20283;-55
2021/04/25 11:23:03;;;;;;;5.27;3.33;;;12.00;99.90;;;;;;5075466;28;20299;-56
2021/04/25 11:25:33;;;;;;;8.10;3.13;;;12.00;99.90;;;;;;5075378;28;20304;-60
2021/04/25 11:28:00;;;;;;;4.23;3.07;;;12.10;99.90;;;;;;5075475;28;20211;-60
2021/04/25 11:30:38;;;;;;;6.13;3.03;;;12.00;99.90;;;;;;5070590;28;20197;-59
2021/04/25 11:33:31;;;;;;;6.57;3.20;;;11.70;99.90;;;;;;5073359;28;20706;-60
2021/04/25 11:36:31;;;;;;;6.07;2.90;;;11.60;99.90;;;;;;5075295;28;20204;-61
2021/04/25 11:38:59;;;;;;;6.60;3.17;;;11.40;99.90;;;;;;5071762;28;20224;-61
2021/04/25 11:41:27;;;;;;;5.80;3.33;;;11.30;99.90;;;;;;5074723;28;20315;-59
2021/04/25 11:43:54;;;;;;;6.37;2.97;;;11.30;99.90;;;;;;5074762;28;20225;-59
2021/04/25 11:46:34;;;;;;;6.07;2.63;;;11.40;99.90;;;;;;5074709;28;20228;-59
2021/04/25 11:49:06;;;;;;;6.33;3.00;;;11.70;99.90;;;;;;5073657;28;20641;-59
2021/04/25 11:51:33;;;;;;;6.53;3.10;;;11.70;99.90;;;;;;5074602;28;20247;-60
2021/04/25 11:54:00;;;;;;;8.23;3.17;;;11.70;99.90;;;;;;5074934;28;20240;-60
2021/04/25 11:56:31;;;;;;;4.20;2.63;;;11.80;99.90;;;;;;5074658;28;20623;-60
2021/04/25 11:59:16;;;;;;;4.60;2.83;;;11.70;99.90;;;;;;5074956;28;20181;-60
2021/04/25 12:01:43;;;;;;;3.77;2.60;;;11.70;99.90;;;;;;5074120;28;20225;-60
2021/04/25 12:04:10;;;;;;;5.13;2.63;;;11.60;99.90;;;;;;5074432;28;20222;-59
2021/04/25 12:06:47;;;;;;;5.33;3.27;;;11.70;99.90;;;;;;5074532;28;20228;-61
2021/04/25 12:09:15;;;;;;;5.03;3.00;;;11.60;99.90;;;;;;5074566;28;20288;-61
2021/04/25 12:11:44;;;;;;;5.20;3.20;;;11.40;99.90;;;;;;5067635;28;20803;-60
2021/04/25 12:14:17;;;;;;;4.83;3.00;;;11.50;99.90;;;;;;5054241;28;20316;-60
2021/04/25 12:16:44;;;;;;;7.83;3.30;;;11.70;99.90;;;;;;5086834;28;20828;-60
2021/04/25 12:19:21;;;;;;;5.47;3.10;;;12.00;99.90;;;;;;5074681;28;20250;-59
2021/04/25 12:21:49;;;;;;;6.47;2.93;;;12.20;99.90;;;;;;5074472;28;20623;-61
2021/04/25 12:24:20;;;;;;;5.57;3.00;;;12.20;99.90;;;;;;5074505;28;20204;-61
2021/04/25 12:26:48;;;;;;;5.27;3.00;;;12.20;99.90;;;;;;5074455;28;20287;-61
2021/04/25 12:29:31;;;;;;;6.57;3.67;;;12.30;99.90;;;;;;5074284;28;20292;-60
2021/04/25 12:31:59;;;;;;;8.03;3.77;;;12.40;99.90;;;;;;5074699;28;20269;-59
2021/04/25 12:34:28;;;;;;;4.47;3.83;;;12.40;99.90;;;;;;5074171;28;20552;-60
2021/04/25 12:36:56;;;;;;;7.23;3.53;;;12.40;99.90;;;;;;5074240;28;20201;-59
2021/04/25 12:39:23;;;;;;;6.37;3.70;;;12.50;99.90;;;;;;5074523;28;20224;-61
2021/04/25 12:41:52;;;;;;;5.07;3.60;;;12.30;99.90;;;;;;5074396;28;20293;-60
2021/04/25 12:44:33;;;;;;;5.27;3.90;;;12.10;99.90;;;;;;5074389;28;20204;-61
2021/04/25 12:47:00;;;;;;;6.27;3.70;;;12.30;99.90;;;;;;5074251;28;20191;-60
2021/04/25 12:49:34;;;;;;;6.03;3.30;;;12.20;99.90;;;;;;5074122;28;20208;-60
2021/04/25 12:52:01;;;;;;;6.27;3.70;;;12.30;99.90;;;;;;5073711;28;20185;-60
2021/04/25 12:54:28;;;;;;;5.87;3.47;;;12.20;99.90;;;;;;5074076;28;20287;-61
2021/04/25 12:56:56;;;;;;;3.77;3.30;;;11.80;99.90;;;;;;5073931;28;20207;-59
2021/04/25 12:59:32;;;;;;;5.87;3.70;;;11.80;99.90;;;;;;5074005;28;20317;-60